createdAt,value
2019-02-23T00:04:50.720Z,39.93
2019-02-23T00:10:57.319Z,40.53
2019-02-23T00:17:03.086Z,43.27
2019-02-23T00:23:08.942Z,39.07
2019-02-23T00:29:14.965Z,50.50
2019-02-23T00:35:21.329Z,35.37
2019-02-23T00:41:27.080Z,38.50
2019-02-23T00:47:33.138Z,38.33
2019-02-23T00:53:38.969Z,41.53
2019-02-23T00:59:44.726Z,38.53
2019-02-23T01:05:50.640Z,37.47
2019-02-23T01:11:56.552Z,42.73
2019-02-23T01:18:02.565Z,39.73
2019-02-23T01:24:08.509Z,38.00
2019-02-23T01:30:15.068Z,37.30
2019-02-23T01:36:20.886Z,37.17
2019-02-23T01:42:27.041Z,37.23
2019-02-23T01:48:32.935Z,41.83
2019-02-23T01:54:38.924Z,38.33
2019-02-23T02:00:44.677Z,38.23
2019-02-23T02:06:50.602Z,36.53
2019-02-23T02:12:56.565Z,42.50
2019-02-23T02:19:02.694Z,38.67
2019-02-23T02:25:09.310Z,38.07
2019-02-23T02:31:15.345Z,41.20
2019-02-23T02:37:21.621Z,39.60
2019-02-23T02:43:27.516Z,36.50
2019-02-23T02:49:33.630Z,47.73
2019-02-23T02:55:39.531Z,41.60
2019-02-23T03:01:45.695Z,40.13
2019-02-23T03:07:51.505Z,37.30
2019-02-23T03:13:57.284Z,34.47
2019-02-23T03:20:03.256Z,18.33
2019-02-23T03:26:09.405Z,15.27
2019-02-23T03:32:15.450Z,14.73
2019-02-23T03:38:21.332Z,16.70
2019-02-23T03:44:27.213Z,15.20
2019-02-23T03:50:32.969Z,19.33
2019-02-23T03:56:39.258Z,21.77
2019-02-23T04:02:45.082Z,26.43
2019-02-23T04:08:50.979Z,21.40
2019-02-23T04:14:56.872Z,19.83
2019-02-23T04:21:02.797Z,22.10
2019-02-23T04:27:09.062Z,41.90
2019-02-23T04:33:14.805Z,45.03
2019-02-23T04:39:20.543Z,32.53
2019-02-23T04:45:26.378Z,35.67
2019-02-23T04:51:32.244Z,41.40
2019-02-23T04:57:38.064Z,42.27
2019-02-23T05:03:46.283Z,41.63
2019-02-23T05:09:52.050Z,34.37
2019-02-23T05:15:57.822Z,26.97
2019-02-23T05:22:03.681Z,32.03
2019-02-23T05:28:09.867Z,24.53
2019-02-23T05:34:15.901Z,29.27
2019-02-23T05:40:21.692Z,48.13
2019-02-23T05:46:27.884Z,18.97
2019-02-23T05:52:34.107Z,16.53
2019-02-23T05:58:40.121Z,18.30
2019-02-23T06:04:46.692Z,16.57
2019-02-23T06:10:53.284Z,16.10
2019-02-23T06:16:59.112Z,15.87
2019-02-23T06:23:05.613Z,19.60
2019-02-23T06:29:11.592Z,20.83
2019-02-23T06:35:18.057Z,17.73
2019-02-23T06:41:24.412Z,16.50
2019-02-23T06:47:32.074Z,25.17
2019-02-23T06:53:38.175Z,21.50
2019-02-23T06:59:44.369Z,19.00
2019-02-23T07:05:50.938Z,19.67
2019-02-23T07:11:56.829Z,19.10
2019-02-23T07:18:03.179Z,18.10
2019-02-23T07:24:09.722Z,26.47
2019-02-23T07:30:15.746Z,23.07
2019-02-23T07:36:21.646Z,24.07
2019-02-23T07:42:27.862Z,22.73
2019-02-23T07:48:34.060Z,22.93
2019-02-23T07:54:39.927Z,25.97
2019-02-23T08:00:45.726Z,25.83
2019-02-23T08:06:51.919Z,21.33
2019-02-23T08:12:58.451Z,19.70
2019-02-23T08:19:04.699Z,19.50
2019-02-23T08:25:11.418Z,18.80
2019-02-23T08:31:22.011Z,22.97
2019-02-23T08:37:28.219Z,20.33
2019-02-23T08:43:34.605Z,24.17
2019-02-23T08:49:40.466Z,19.87
2019-02-23T08:55:47.151Z,18.77
2019-02-23T09:01:53.342Z,17.90
2019-02-23T09:07:59.355Z,16.97
2019-02-23T09:14:05.167Z,19.03
2019-02-23T09:20:12.146Z,17.90
2019-02-23T09:26:18.381Z,16.53
2019-02-23T09:32:24.468Z,15.90
2019-02-23T09:38:30.567Z,17.70
2019-02-23T09:44:36.753Z,14.87
2019-02-23T09:50:42.527Z,15.40
2019-02-23T09:56:48.413Z,14.87
2019-02-23T10:02:54.372Z,20.07
2019-02-23T10:09:00.152Z,16.13
2019-02-23T10:15:06.769Z,15.17
2019-02-23T10:21:12.637Z,14.90
2019-02-23T10:27:18.831Z,12.53
2019-02-23T10:33:24.770Z,14.60
2019-02-23T10:39:30.915Z,13.13
2019-02-23T10:45:36.955Z,12.27
2019-02-23T10:51:42.838Z,14.37
2019-02-23T10:57:48.834Z,13.00
2019-02-23T11:03:54.603Z,13.77
2019-02-23T11:10:00.449Z,14.30
2019-02-23T11:16:06.368Z,12.37
2019-02-23T11:22:12.542Z,10.50
2019-02-23T11:28:18.627Z,9.60
2019-02-23T11:34:24.853Z,10.17
2019-02-23T11:40:30.878Z,9.07
2019-02-23T11:46:36.777Z,9.10
2019-02-23T11:52:43.751Z,7.47
2019-02-23T11:58:49.710Z,6.30
2019-02-23T12:04:55.493Z,5.90
2019-02-23T12:11:01.282Z,5.73
2019-02-23T12:17:07.073Z,5.67
2019-02-23T12:23:12.813Z,5.93
2019-02-23T12:29:18.705Z,6.83
2019-02-23T12:35:24.523Z,6.17
2019-02-23T12:41:30.399Z,5.93
2019-02-23T12:47:36.534Z,5.90
2019-02-23T12:53:42.384Z,5.83
2019-02-23T12:59:48.185Z,6.30
2019-02-23T13:05:53.983Z,6.30
2019-02-23T13:12:29.781Z,6.77
2019-02-23T13:19:30.957Z,5.63
2019-02-23T13:25:56.085Z,5.67
2019-02-23T13:32:49.554Z,5.53
2019-02-23T13:39:29.791Z,5.70
2019-02-23T13:46:12.535Z,7.30
2019-02-23T13:53:27.195Z,6.37
2019-02-23T14:00:16.404Z,6.53
2019-02-23T14:07:10.323Z,6.43
2019-02-23T14:14:17.978Z,5.60
2019-02-23T14:21:18.365Z,6.40
2019-02-23T14:28:27.658Z,6.17
2019-02-23T14:35:49.961Z,5.73
2019-02-23T14:42:32.553Z,6.03
2019-02-23T14:49:08.266Z,4.93
2019-02-23T14:56:08.494Z,4.93
2019-02-23T15:02:58.958Z,5.40
2019-02-23T15:09:49.379Z,7.47
2019-02-23T15:17:25.120Z,5.80
2019-02-23T15:24:05.625Z,5.83
2019-02-23T15:31:00.422Z,6.57
2019-02-23T15:38:16.406Z,5.73
2019-02-23T15:45:20.827Z,5.97
2019-02-23T15:51:26.720Z,6.20
2019-02-23T15:57:32.576Z,5.73
2019-02-23T16:03:38.368Z,5.70
2019-02-23T16:09:44.369Z,6.63
2019-02-23T16:15:50.258Z,5.83
2019-02-23T16:21:56.099Z,5.87
2019-02-23T16:28:02.163Z,10.97
2019-02-23T16:34:08.082Z,5.10
2019-02-23T16:40:14.327Z,5.47
2019-02-23T16:46:20.078Z,5.87
2019-02-23T16:52:26.279Z,5.07
2019-02-23T16:58:32.204Z,6.30
2019-02-23T17:04:38.352Z,7.20
2019-02-23T17:10:44.620Z,6.73
2019-02-23T17:16:50.379Z,9.17
2019-02-23T17:22:56.202Z,6.87
2019-02-23T17:29:02.084Z,8.43
2019-02-23T17:35:08.578Z,7.20
2019-02-23T17:41:14.479Z,7.10
2019-02-23T17:47:20.475Z,9.40
2019-02-23T17:53:26.926Z,9.37
2019-02-23T17:59:32.770Z,9.73
2019-02-23T18:05:38.728Z,7.03
2019-02-23T18:11:44.642Z,6.40
2019-02-23T18:17:50.740Z,7.10
2019-02-23T18:23:56.700Z,7.70
2019-02-23T18:30:10.690Z,6.30
2019-02-23T18:36:10.183Z,6.90
2019-02-23T18:42:16.345Z,5.70
2019-02-23T18:48:22.744Z,7.83
2019-02-23T18:54:28.650Z,8.20
2019-02-23T19:00:36.514Z,7.93
2019-02-23T19:06:42.488Z,7.87
2019-02-23T19:12:48.381Z,8.67
2019-02-23T19:18:55.054Z,9.43
2019-02-23T19:25:01.344Z,8.53
2019-02-23T19:31:08.163Z,9.77
2019-02-23T19:37:14.280Z,9.20
2019-02-23T19:43:20.029Z,8.70
2019-02-23T19:49:25.920Z,12.53
2019-02-23T19:55:32.676Z,10.63
2019-02-23T20:01:39.105Z,12.37
2019-02-23T20:07:45.178Z,14.20
2019-02-23T20:13:51.043Z,10.10
2019-02-23T20:19:56.944Z,9.67
2019-02-23T20:26:03.968Z,10.07
2019-02-23T20:32:09.799Z,10.30
2019-02-23T20:38:15.602Z,10.00
2019-02-23T20:44:21.415Z,10.20
2019-02-23T20:50:27.297Z,9.67
2019-02-23T20:56:33.086Z,10.13
2019-02-23T21:02:39.114Z,9.43
2019-02-23T21:08:45.015Z,10.33
2019-02-23T21:14:51.062Z,10.33
2019-02-23T21:20:57.071Z,9.37
2019-02-23T21:27:03.292Z,10.40
2019-02-23T21:33:09.209Z,9.30
2019-02-23T21:39:15.043Z,8.27
2019-02-23T21:45:20.845Z,8.83
2019-02-23T21:51:26.675Z,9.43
2019-02-23T21:57:32.510Z,8.83
2019-02-23T22:03:38.636Z,8.40
2019-02-23T22:09:44.473Z,8.27
2019-02-23T22:15:50.542Z,8.73
2019-02-23T22:21:56.465Z,9.70
2019-02-23T22:28:02.634Z,9.57
2019-02-23T22:34:08.853Z,9.30
2019-02-23T22:40:14.705Z,9.07
2019-02-23T22:46:20.745Z,9.00
2019-02-23T22:52:26.693Z,9.13
2019-02-23T22:58:32.486Z,8.63
2019-02-23T23:04:38.528Z,8.70
2019-02-23T23:10:44.781Z,8.70
2019-02-23T23:16:50.745Z,8.93
2019-02-23T23:22:56.691Z,8.57
2019-02-23T23:29:02.865Z,8.03
2019-02-23T23:35:08.894Z,7.33
2019-02-23T23:41:14.957Z,7.83
2019-02-23T23:47:21.000Z,7.73
2019-02-23T23:53:26.732Z,8.50
2019-02-23T23:59:32.810Z,7.97
